M I D A S
Marine Information and Data Acquisition System
Tripno 1890 of the Zeeleeuw from 2010-05-31 07:21:00 to 2010-05-31 11:38:17
Back to CruiseResearch ActivitiesStationsMapUnderway DataData graphs

EquipmentUnitsComment
TimeDGPSUTC
LatitudeDGPSDM.mWGS84
LongitudeDGPSDM.mWGS84
TemperatureSBE03/SBE38deg celciusITS90
ConductivitySBE21S/mITS90
SalinitySBE21 Practical Salinity Units
ChlorophylAChelsea fluorimeterg/lCalibrated in Aceton
Missing or incorrect values are displayed as -999
Sea surface data collected by the RV Zeeleeuw from 2010-05-31 06:51:01 to 2010-05-31 11:47:31
Time Latitude Longitude Temperature Conductivity Salinity ChlorophylA
2010-05-31 06:52:06 51°13.661 2°55.959 20.2557 0.080561 0.434882 -1.035392
2010-05-31 06:53:10 51°13.675 2°55.891 20.2606 0.080561 0.434916 -1.035392
2010-05-31 06:54:10 51°13.715 2°55.773 20.282 0.080561 0.434937 -1.000568
2010-05-31 06:55:10 51°13.775 2°55.678 20.3096 0.080561 0.434985 -1.000568
2010-05-31 06:56:10 51°13.829 2°55.65 20.2549 0.080561 0.435019 -1.000568
2010-05-31 06:57:10 51°13.905 2°55.618 20.269 0.080561 0.435047 -1.000568
2010-05-31 06:58:10 51°13.957 2°55.621 20.2106 0.080457 0.43452 -1.035392
2010-05-31 06:59:07 51°13.964 2°55.629 19.9928 0.080457 0.434534 -1.035392
2010-05-31 07:00:07 51°13.949 2°55.629 20.1472 0.080561 0.435185 -1.000568
2010-05-31 07:01:09 51°13.955 2°55.583 20.0187 0.080457 0.434664 -1.000568
2010-05-31 07:02:07 51°14.036 2°55.497 20.0898 0.080457 0.434706 -1.035392
2010-05-31 07:03:06 51°14.168 2°55.382 20.0437 0.080457 0.434754 -1.000568
2010-05-31 07:04:07 51°14.316 2°55.223 19.9565 0.080457 0.434768 -1.000568
2010-05-31 07:05:06 51°14.473 2°55.062 19.9749 0.080457 0.434775 -0.965744
2010-05-31 07:06:07 51°14.618 2°54.835 20.0555 0.080457 0.434836 -1.000568
2010-05-31 07:07:07 51°14.62 2°54.486 19.9242 0.080457 0.43485 -1.000568
2010-05-31 07:08:06 51°14.469 2°54.196 19.9017 0.080457 0.434823 -0.965744
2010-05-31 07:09:07 51°14.324 2°53.875 19.9407 0.080457 0.434864 -0.965744
2010-05-31 07:10:06 51°14.185 2°53.562 19.9489 0.080457 0.434864 -1.000568
2010-05-31 07:11:07 51°14.037 2°53.241 19.951 0.080457 0.434912 -0.965744
2010-05-31 07:12:06 51°13.891 2°52.931 19.9527 0.080457 0.434885 -1.000568
2010-05-31 07:13:07 51°13.746 2°52.612 19.9741 0.080353 0.434316 -0.965744
2010-05-31 07:14:06 51°13.605 2°52.31 19.9819 0.080353 0.434392 -0.965744
2010-05-31 07:15:07 51°13.461 2°51.998 19.9993 0.080457 0.434954 -1.000568
2010-05-31 07:16:07 51°13.316 2°51.707 20.012 0.080457 0.43496 -0.93092
2010-05-31 07:17:06 51°13.267 2°51.481 20.0288 0.080457 0.435002 -0.965744
2010-05-31 07:18:07 51°13.298 2°51.386 20.0427 0.080457 0.435036 -1.000568
2010-05-31 07:19:07 51°13.342 2°51.387 20.0534 0.080353 0.434474 -0.965744
2010-05-31 07:20:06 51°13.411 2°51.421 20.0652 0.080353 0.434509 -1.000568
2010-05-31 07:21:07 51°13.485 2°51.431 20.0738 0.080353 0.434495 -1.000568
2010-05-31 07:22:06 51°13.494 2°51.443 20.0843 0.080353 0.434564 -1.000568
2010-05-31 07:23:07 51°13.49 2°51.453 20.0997 0.080353 0.434564 -1.000568
2010-05-31 07:24:06 51°13.481 2°51.453 20.1103 0.080353 0.434585 -0.965744
2010-05-31 07:25:07 51°13.468 2°51.448 20.1132 0.080353 0.434591 -0.965744
2010-05-31 07:26:07 51°13.453 2°51.441 20.1321 0.080353 0.434612 -1.000568
2010-05-31 07:27:07 51°13.444 2°51.479 20.1328 0.080353 0.434626 -0.965744
2010-05-31 07:28:06 51°13.375 2°51.505 20.1411 0.080353 0.434695 -0.965744
2010-05-31 07:29:07 51°13.284 2°51.36 20.1594 0.080353 0.43464 -1.000568
2010-05-31 07:30:07 51°13.157 2°51.086 20.1773 0.080353 0.434695 -1.000568
2010-05-31 07:31:07 51°13.045 2°50.759 20.1874 0.080353 0.434729 -1.000568
2010-05-31 07:32:07 51°12.937 2°50.423 20.2019 0.080353 0.434757 -1.000568
2010-05-31 07:33:07 51°12.829 2°50.083 20.2168 0.080353 0.434695 -1.000568
2010-05-31 07:34:06 51°12.718 2°49.751 20.2308 0.080353 0.434736 -0.965744
2010-05-31 07:35:06 51°12.607 2°49.415 20.2456 0.080353 0.434743 -1.000568
2010-05-31 07:36:07 51°12.494 2°49.073 20.2565 0.080353 0.434791 -1.000568
2010-05-31 07:37:07 51°12.382 2°48.743 20.2745 0.080353 0.434771 -0.965744
2010-05-31 07:38:07 51°12.271 2°48.408 20.2935 0.080353 0.434826 -1.000568
2010-05-31 07:39:07 51°12.16 2°48.073 20.305 0.080353 0.434826 -1.035392
2010-05-31 07:40:07 51°12.049 2°47.736 20.321 0.080353 0.434846 -0.965744
2010-05-31 07:41:06 51°11.94 2°47.403 20.3351 0.080353 0.434929 -1.000568
2010-05-31 07:42:07 51°11.829 2°47.058 20.3434 0.080249 0.434312 -0.965744
2010-05-31 07:43:06 51°11.718 2°46.725 20.3589 0.080353 0.434902 -1.000568
2010-05-31 07:44:07 51°11.608 2°46.381 20.3771 0.080249 0.434332 -0.965744
2010-05-31 07:45:07 51°11.498 2°46.044 20.393 0.080249 0.434339 -1.000568
2010-05-31 07:46:06 51°11.387 2°45.712 20.4061 0.080249 0.434374 -0.93092
2010-05-31 07:47:07 51°11.275 2°45.366 20.4222 0.080353 0.434929 -0.965744
2010-05-31 07:48:07 51°11.168 2°45.03 20.4305 0.080249 0.434381 -1.035392
2010-05-31 07:49:07 51°11.058 2°44.696 20.4473 0.080249 0.434401 -0.965744
2010-05-31 07:50:07 51°10.948 2°44.362 20.4584 0.080249 0.434429 -0.965744
2010-05-31 07:51:07 51°10.839 2°44.028 20.4718 0.080249 0.434456 -1.000568
2010-05-31 07:52:07 51°10.731 2°43.695 20.4889 0.080249 0.434484 -0.965744
2010-05-31 07:53:07 51°10.624 2°43.363 20.4924 0.080249 0.434491 -1.000568
2010-05-31 07:54:07 51°10.455 2°43.232 20.494 0.080249 0.434532 -1.000568
2010-05-31 07:55:06 51°10.33 2°43.14 20.5365 0.080249 0.434546 -0.965744
2010-05-31 07:56:07 51°10.335 2°42.971 20.5269 0.080249 0.434567 -0.965744
2010-05-31 07:57:07 51°10.367 2°42.928 20.5214 0.080249 0.434553 -0.965744
2010-05-31 07:58:07 51°10.363 2°42.92 20.541 0.080249 0.434581 -0.965744
2010-05-31 07:59:06 51°10.352 2°42.91 20.5513 0.080249 0.434608 -1.000568
2010-05-31 08:00:07 51°10.336 2°42.896 20.5629 0.080249 0.434629 -0.965744
2010-05-31 08:01:07 51°10.318 2°42.875 20.5746 0.080249 0.43465 -1.035392
2010-05-31 08:02:07 51°10.295 2°42.854 20.5849 0.080249 0.434656 -0.965744
2010-05-31 08:03:07 51°10.274 2°42.831 20.5964 0.080249 0.43467 -1.000568
2010-05-31 08:04:07 51°10.271 2°42.86 20.6074 0.080249 0.434705 -0.965744
2010-05-31 08:05:07 51°10.33 2°42.978 20.6103 0.080249 0.434698 -1.000568
2010-05-31 08:06:06 51°10.429 2°43.175 20.6209 0.080249 0.434774 -0.965744
2010-05-31 08:07:07 51°10.543 2°43.413 20.6293 0.080249 0.434732 -0.965744
2010-05-31 08:08:07 51°10.648 2°43.665 20.6398 0.080249 0.434795 -1.000568
2010-05-31 08:09:06 51°10.748 2°43.924 20.6501 0.080249 0.434781 -1.000568
2010-05-31 08:10:06 51°10.852 2°44.191 20.6612 0.080249 0.434795 -1.000568
2010-05-31 08:11:07 51°10.952 2°44.469 20.672 0.080249 0.434857 -1.000568
2010-05-31 08:12:06 51°11.044 2°44.743 20.6747 0.080145 0.43428 -0.965744
2010-05-31 08:13:06 51°11.141 2°45.019 20.6804 0.080145 0.434238 -0.965744
2010-05-31 08:14:07 51°11.245 2°45.295 20.6971 0.080145 0.434273 -1.000568
2010-05-31 08:15:06 51°11.347 2°45.561 20.7115 0.080145 0.434425 -0.965744
2010-05-31 08:16:07 51°11.441 2°45.841 20.7138 0.080145 0.434328 -0.965744
2010-05-31 08:17:06 51°11.533 2°46.108 20.7081 0.080145 0.434363 -0.965744
2010-05-31 08:18:07 51°11.625 2°46.387 20.7262 0.080145 0.434466 -0.93092
2010-05-31 08:19:06 51°11.714 2°46.658 20.7317 0.080145 0.434466 -1.000568
2010-05-31 08:20:07 51°11.806 2°46.942 20.759 0.080145 0.434425 -0.965744
2010-05-31 08:21:06 51°11.897 2°47.214 20.7647 0.080145 0.434439 -1.000568
2010-05-31 08:22:07 51°11.99 2°47.496 20.7688 0.080145 0.43448 -0.965744
2010-05-31 08:23:06 51°12.084 2°47.767 20.778 0.080145 0.434508 -1.000568
2010-05-31 08:24:07 51°12.181 2°48.045 20.787 0.080145 0.434535 -0.93092
2010-05-31 08:25:06 51°12.27 2°48.318 20.7946 0.080145 0.434515 -0.965744
2010-05-31 08:26:06 51°12.364 2°48.594 20.8036 0.080145 0.434528 -0.93092
2010-05-31 08:27:07 51°12.459 2°48.869 20.8018 0.080145 0.434646 -0.965744
2010-05-31 08:28:06 51°12.549 2°49.137 20.8151 0.080145 0.434577 -1.000568
2010-05-31 08:29:07 51°12.638 2°49.422 20.8223 0.080145 0.434611 -0.965744
2010-05-31 08:30:06 51°12.726 2°49.694 20.833 0.080145 0.434625 -1.000568
2010-05-31 08:31:06 51°12.815 2°49.969 20.8382 0.080145 0.434639 -1.000568
2010-05-31 08:32:07 51°12.913 2°50.24 20.8501 0.080145 0.434694 -0.965744
2010-05-31 08:33:06 51°13 2°50.503 20.859 0.080145 0.434694 -1.000568
2010-05-31 08:34:07 51°13.091 2°50.772 20.8542 0.080145 0.434743 -0.965744
2010-05-31 08:35:07 51°13.177 2°51.04 20.8638 0.080041 0.434165 -1.000568
2010-05-31 08:36:07 51°13.266 2°51.306 20.876 0.080041 0.434151 -1.000568
2010-05-31 08:37:06 51°13.356 2°51.566 20.8729 0.080041 0.434269 -1.000568
2010-05-31 08:38:07 51°13.45 2°51.834 20.8911 0.080145 0.434798 -0.965744
2010-05-31 08:39:07 51°13.543 2°52.1 20.8974 0.080041 0.434262 -0.965744
2010-05-31 08:40:06 51°13.638 2°52.361 20.9045 0.080041 0.434262 -1.000568
2010-05-31 08:41:07 51°13.735 2°52.633 20.9168 0.080041 0.434296 -1.000568
2010-05-31 08:42:06 51°13.829 2°52.895 20.9254 0.080041 0.43431 -1.000568
2010-05-31 08:43:07 51°13.928 2°53.165 20.9331 0.080041 0.434324 -1.000568
2010-05-31 08:44:06 51°14.028 2°53.422 20.9421 0.080041 0.434345 -1.000568
2010-05-31 08:45:07 51°14.156 2°53.657 20.9505 0.080041 0.434366 -0.965744
2010-05-31 08:46:07 51°14.303 2°53.856 20.9595 0.080041 0.434366 -1.000568
2010-05-31 08:47:06 51°14.48 2°53.963 20.967 0.080041 0.434414 -0.965744
2010-05-31 08:48:07 51°14.679 2°53.874 20.9726 0.080041 0.4344 -0.93092
2010-05-31 08:49:07 51°14.868 2°53.742 20.9826 0.080041 0.434435 -0.965744
2010-05-31 08:50:07 51°15.059 2°53.617 20.9919 0.080041 0.434463 -0.965744
2010-05-31 08:51:06 51°15.248 2°53.5 20.9998 0.080041 0.434504 -1.000568
2010-05-31 08:52:07 51°15.446 2°53.369 21.012 0.080041 0.434483 -1.000568
2010-05-31 08:53:06 51°15.638 2°53.246 21.022 0.080041 0.434546 -1.000568
2010-05-31 08:54:07 51°15.834 2°53.122 21.0304 0.080041 0.434518 -0.965744
2010-05-31 08:55:06 51°16.021 2°52.999 21.0415 0.080041 0.434566 -0.965744
2010-05-31 08:56:07 51°16.211 2°52.877 21.0491 0.080041 0.434559 -1.000568
2010-05-31 08:57:07 51°16.401 2°52.755 21.0617 0.080041 0.43458 -0.965744
2010-05-31 08:58:07 51°16.594 2°52.645 21.0676 0.080041 0.43458 -0.965744
2010-05-31 08:59:07 51°16.786 2°52.554 21.0792 0.080041 0.434601 -0.965744
2010-05-31 09:00:06 51°16.976 2°52.489 21.0876 0.080041 0.434601 -0.93092
2010-05-31 09:01:07 51°17.173 2°52.422 21.0924 0.080041 0.434622 -0.93092
2010-05-31 09:02:06 51°17.364 2°52.357 21.1017 0.080041 0.434622 -0.93092
2010-05-31 09:03:07 51°17.564 2°52.315 21.1129 0.080041 0.434636 -0.93092
2010-05-31 09:04:06 51°17.755 2°52.324 21.1249 0.080041 0.434684 -0.965744
2010-05-31 09:05:07 51°17.939 2°52.413 21.1307 0.080041 0.434684 -0.965744
2010-05-31 09:06:06 51°18.104 2°52.543 21.1342 0.080041 0.434698 -0.965744
2010-05-31 09:07:07 51°18.237 2°52.768 21.1455 0.080041 0.434767 -1.000568
2010-05-31 09:08:07 51°18.295 2°53.07 21.1519 0.080041 0.434726 -0.965744
2010-05-31 09:09:06 51°18.356 2°53.365 21.1538 0.080041 0.434767 -0.965744
2010-05-31 09:10:07 51°18.431 2°53.66 21.162 0.080041 0.43483 -1.000568
2010-05-31 09:11:06 51°18.507 2°53.94 21.1666 0.080041 0.434864 -0.93092
2010-05-31 09:12:07 51°18.59 2°54.225 21.174 0.080041 0.434837 -1.000568
2010-05-31 09:13:06 51°18.671 2°54.5 21.1812 0.080041 0.43485 -0.965744
2010-05-31 09:14:07 51°18.76 2°54.778 21.1798 0.079937 0.434355 -0.965744
2010-05-31 09:15:07 51°18.845 2°55.054 21.1878 0.080041 0.434906 -1.000568
2010-05-31 09:16:07 51°18.927 2°55.331 21.1986 0.080041 0.434934 -0.93092
2010-05-31 09:17:06 51°19.004 2°55.606 21.2068 0.079937 0.434355 -0.965744
2010-05-31 09:18:06 51°19.084 2°55.881 21.213 0.080041 0.434961 -0.965744
2010-05-31 09:19:07 51°19.165 2°56.16 21.2176 0.079937 0.434383 -1.000568
2010-05-31 09:20:06 51°19.246 2°56.427 21.2255 0.079937 0.434445 -0.965744
2010-05-31 09:21:07 51°19.33 2°56.705 21.225 0.079937 0.434383 -1.000568
2010-05-31 09:22:06 51°19.412 2°56.969 21.2401 0.079937 0.434438 -0.965744
2010-05-31 09:23:07 51°19.496 2°57.247 21.2457 0.079937 0.434362 -0.93092
2010-05-31 09:24:07 51°19.582 2°57.516 21.2426 0.079937 0.434487 -0.93092
2010-05-31 09:25:07 51°19.664 2°57.788 21.2456 0.079937 0.434501 -0.965744
2010-05-31 09:26:07 51°19.75 2°58.061 21.2615 0.079937 0.434487 -0.93092
2010-05-31 09:27:06 51°19.829 2°58.334 21.2712 0.079937 0.43448 -1.000568
2010-05-31 09:28:07 51°19.914 2°58.611 21.2799 0.079937 0.43448 -0.93092
2010-05-31 09:29:06 51°19.995 2°58.878 21.2836 0.079937 0.434535 -0.93092
2010-05-31 09:30:07 51°20.081 2°59.154 21.2935 0.079937 0.434563 -1.000568
2010-05-31 09:31:06 51°20.164 2°59.417 21.3004 0.079937 0.434577 -0.965744
2010-05-31 09:32:07 51°20.249 2°59.692 21.3083 0.079937 0.43457 -1.000568
2010-05-31 09:33:06 51°20.331 2°59.956 21.3082 0.079937 0.434681 -0.93092
2010-05-31 09:34:07 51°20.416 3°0.222 21.3055 0.079937 0.434674 -0.965744
2010-05-31 09:35:07 51°20.497 3°0.487 21.3171 0.079937 0.434674 -0.965744
2010-05-31 09:36:06 51°20.573 3°0.753 21.3246 0.079937 0.434667 -1.000568
2010-05-31 09:37:07 51°20.656 3°1.026 21.3391 0.079937 0.434674 -0.93092
2010-05-31 09:38:07 51°20.732 3°1.298 21.3404 0.079937 0.434653 -0.965744
2010-05-31 09:39:06 51°20.777 3°1.586 21.3501 0.079937 0.434674 -0.93092
2010-05-31 09:40:06 51°20.821 3°1.879 21.3616 0.079937 0.434695 -0.93092
2010-05-31 09:41:07 51°20.866 3°2.172 21.3701 0.079937 0.43473 -0.93092
2010-05-31 09:42:07 51°20.908 3°2.46 21.3716 0.079937 0.434764 -0.93092
2010-05-31 09:43:07 51°20.954 3°2.751 21.3752 0.079937 0.434806 -0.896096
2010-05-31 09:44:07 51°21.04 3°3.014 21.3795 0.079937 0.434841 -0.896096
2010-05-31 09:45:06 51°21.134 3°3.262 21.3984 0.079937 0.434792 -0.965744
2010-05-31 09:46:07 51°21.215 3°3.531 21.4057 0.079937 0.434827 -0.965744
2010-05-31 09:47:06 51°21.29 3°3.795 21.4081 0.079937 0.434806 -0.965744
2010-05-31 09:48:07 51°21.366 3°4.07 21.4059 0.079833 0.434324 -0.965744
2010-05-31 09:49:07 51°21.44 3°4.339 21.4156 0.079833 0.434338 -0.965744
2010-05-31 09:50:06 51°21.518 3°4.604 21.4254 0.079833 0.434359 -0.965744
2010-05-31 09:51:06 51°21.598 3°4.874 21.4333 0.079833 0.434359 -0.965744
2010-05-31 09:52:06 51°21.675 3°5.145 21.4398 0.079833 0.4344 -0.93092
2010-05-31 09:53:07 51°21.75 3°5.423 21.4508 0.079833 0.434373 -0.93092
2010-05-31 09:54:06 51°21.811 3°5.7 21.4599 0.079937 0.43498 -0.965744
2010-05-31 09:55:07 51°21.872 3°5.988 21.4614 0.079833 0.434449 -0.965744
2010-05-31 09:56:06 51°21.933 3°6.269 21.4702 0.079833 0.434463 -0.965744
2010-05-31 09:57:06 51°21.981 3°6.563 21.4754 0.079833 0.434491 -0.965744
2010-05-31 09:58:07 51°22.024 3°6.867 21.4743 0.079833 0.434532 -1.000568
2010-05-31 09:59:06 51°22.065 3°7.159 21.4861 0.079833 0.434484 -1.000568
2010-05-31 10:00:06 51°22.108 3°7.452 21.4847 0.079833 0.43456 -0.93092
2010-05-31 10:01:06 51°22.152 3°7.749 21.4932 0.079833 0.434574 -0.93092
2010-05-31 10:02:06 51°22.197 3°8.042 21.4882 0.079833 0.434581 -0.965744
2010-05-31 10:03:06 51°22.239 3°8.34 21.5078 0.079833 0.434623 -0.965744
2010-05-31 10:04:07 51°22.289 3°8.639 21.5036 0.079833 0.434616 -0.93092
2010-05-31 10:05:06 51°22.346 3°8.922 21.5093 0.079833 0.434657 -0.965744
2010-05-31 10:06:07 51°22.41 3°9.217 21.5238 0.079833 0.43463 -0.965744
2010-05-31 10:07:06 51°22.478 3°9.501 21.5288 0.079833 0.434692 -0.965744
2010-05-31 10:08:07 51°22.551 3°9.79 21.5319 0.079833 0.43479 -0.965744
2010-05-31 10:09:06 51°22.624 3°10.07 21.5435 0.079833 0.43472 -0.965744
2010-05-31 10:10:06 51°22.697 3°10.359 21.5397 0.079833 0.434755 -0.965744
2010-05-31 10:11:06 51°22.736 3°10.66 21.5537 0.079833 0.43472 -0.965744
2010-05-31 10:12:06 51°22.728 3°10.971 21.559 0.079833 0.434762 -0.965744
2010-05-31 10:13:07 51°22.666 3°11.15 21.6918 0.079833 0.434762 -0.965744
2010-05-31 10:14:06 51°22.568 3°11.189 21.5925 0.079833 0.434783 -0.965744
2010-05-31 10:15:07 51°22.458 3°11.206 21.6745 0.079833 0.434803 -0.965744
2010-05-31 10:16:07 51°22.384 3°11.159 21.6366 0.079833 0.434873 -1.000568
2010-05-31 10:17:06 51°22.36 3°11.13 21.652 0.079729 0.434286 -1.035392
2010-05-31 10:18:07 51°22.339 3°11.111 21.6607 0.079833 0.434887 -0.965744
2010-05-31 10:19:07 51°22.32 3°11.11 21.6771 0.079833 0.434859 -0.965744
2010-05-31 10:20:06 51°22.304 3°11.098 21.6924 0.079833 0.434908 -1.035392
2010-05-31 10:21:06 51°22.287 3°11.084 21.705 0.079833 0.434908 -1.000568
2010-05-31 10:22:07 51°22.268 3°11.068 21.7221 0.079833 0.434943 -1.000568
2010-05-31 10:23:06 51°22.257 3°11.063 21.737 0.079833 0.43495 -1.000568
2010-05-31 10:24:07 51°22.284 3°11.053 21.7736 0.079729 0.434418 -0.965744
2010-05-31 10:25:06 51°22.295 3°10.937 21.118 0.079729 0.43439 -0.965744
2010-05-31 10:26:07 51°22.298 3°10.647 21.2594 0.079833 0.434964 -0.965744
2010-05-31 10:27:06 51°22.293 3°10.283 21.2653 0.079729 0.434383 -0.965744
2010-05-31 10:28:07 51°22.27 3°9.897 21.2819 0.079729 0.434425 -0.965744
2010-05-31 10:29:06 51°22.245 3°9.522 21.3634 0.079729 0.434432 -1.000568
2010-05-31 10:30:06 51°22.222 3°9.145 21.3814 0.079729 0.43446 -1.000568
2010-05-31 10:31:07 51°22.199 3°8.763 21.4197 0.079729 0.434453 -1.000568
2010-05-31 10:32:06 51°22.177 3°8.398 21.358 0.079729 0.434453 -0.965744
2010-05-31 10:33:07 51°22.153 3°8.022 21.3332 0.079833 0.435082 -0.965744
2010-05-31 10:34:06 51°22.131 3°7.656 21.4265 0.079729 0.434474 -0.965744
2010-05-31 10:35:06 51°22.108 3°7.284 21.4439 0.079729 0.434502 -1.000568
2010-05-31 10:36:06 51°22.086 3°6.911 21.4225 0.079729 0.434502 -1.000568
2010-05-31 10:37:07 51°22.064 3°6.532 21.4565 0.079729 0.434543 -0.965744
2010-05-31 10:38:06 51°22.043 3°6.164 21.4448 0.079729 0.434529 -0.965744
2010-05-31 10:39:06 51°22.022 3°5.79 21.4724 0.079729 0.434543 -0.965744
2010-05-31 10:40:07 51°21.999 3°5.412 21.4917 0.079729 0.434536 -1.000568
2010-05-31 10:41:06 51°21.978 3°5.049 21.4374 0.079729 0.434585 -0.965744
2010-05-31 10:42:06 51°21.956 3°4.677 21.4344 0.079729 0.434564 -0.965744
2010-05-31 10:43:06 51°21.933 3°4.299 21.4825 0.079729 0.434592 -0.965744
2010-05-31 10:44:07 51°21.91 3°3.914 21.5208 0.079729 0.434592 -0.965744
2010-05-31 10:45:06 51°21.885 3°3.545 21.5288 0.079729 0.434634 -1.000568
2010-05-31 10:46:06 51°21.863 3°3.171 21.4773 0.079729 0.434613 -0.965744
2010-05-31 10:47:06 51°21.838 3°2.795 21.5166 0.079729 0.434634 -1.000568
2010-05-31 10:48:06 51°21.812 3°2.421 21.5067 0.079729 0.434655 -0.965744
2010-05-31 10:49:06 51°21.771 3°2.051 21.4989 0.079729 0.434655 -1.000568
2010-05-31 10:50:06 51°21.687 3°1.69 21.4965 0.079729 0.434676 -1.000568
2010-05-31 10:51:07 51°21.599 3°1.327 21.4515 0.079729 0.434717 -0.965744
2010-05-31 10:52:06 51°21.515 3°0.974 21.4343 0.079729 0.434669 -0.965744
2010-05-31 10:53:07 51°21.43 3°0.61 21.4804 0.079729 0.434704 -0.965744
2010-05-31 10:54:06 51°21.339 3°0.261 21.5116 0.079729 0.434711 -0.965744
2010-05-31 10:55:06 51°21.221 2°59.92 21.5247 0.079729 0.434711 -0.965744
2010-05-31 10:56:06 51°21.108 2°59.576 21.374 0.079729 0.434766 -0.965744
2010-05-31 10:57:06 51°20.987 2°59.242 21.4687 0.079729 0.434759 -1.000568
2010-05-31 10:58:06 51°20.858 2°58.919 21.382 0.079729 0.434759 -0.965744
2010-05-31 10:59:06 51°20.729 2°58.597 21.4995 0.079729 0.434766 -0.965744
2010-05-31 11:00:07 51°20.598 2°58.267 21.5139 0.079729 0.434773 -0.965744
2010-05-31 11:01:07 51°20.467 2°57.946 21.5901 0.079729 0.434801 -1.000568
2010-05-31 11:02:07 51°20.337 2°57.622 21.5091 0.079729 0.434787 -0.965744
2010-05-31 11:03:06 51°20.209 2°57.302 21.5532 0.079729 0.434836 -0.965744
2010-05-31 11:04:07 51°20.077 2°56.971 21.517 0.079729 0.434836 -0.965744
2010-05-31 11:05:06 51°19.95 2°56.648 21.5498 0.079729 0.434822 -1.000568
2010-05-31 11:06:07 51°19.817 2°56.321 21.5838 0.079729 0.434857 -0.965744
2010-05-31 11:07:06 51°19.691 2°55.999 21.5909 0.079729 0.434878 -0.965744
2010-05-31 11:08:07 51°19.56 2°55.665 21.6112 0.079729 0.434864 -1.000568
2010-05-31 11:09:07 51°19.43 2°55.337 21.535 0.079729 0.43492 -0.965744
2010-05-31 11:10:06 51°19.302 2°55.015 21.4159 0.079729 0.434961 -1.000568
2010-05-31 11:11:07 51°19.204 2°54.658 21.544 0.079729 0.434906 -1.000568
2010-05-31 11:12:06 51°19.137 2°54.294 21.6211 0.079729 0.43492 -0.965744
2010-05-31 11:13:07 51°19.072 2°53.916 21.5762 0.079729 0.434941 -0.965744
2010-05-31 11:14:06 51°18.974 2°53.577 21.6504 0.079729 0.434975 -1.000568
2010-05-31 11:15:06 51°18.831 2°53.269 21.6611 0.079729 0.434954 -0.965744
2010-05-31 11:16:06 51°18.663 2°52.99 21.6635 0.079729 0.434948 -0.965744
2010-05-31 11:17:06 51°18.498 2°52.705 21.5397 0.079729 0.434968 -1.000568
2010-05-31 11:18:06 51°18.324 2°52.437 21.6791 0.079729 0.434996 -1.000568
2010-05-31 11:19:06 51°18.105 2°52.289 21.6017 0.079729 0.434989 -0.965744
2010-05-31 11:20:07 51°17.866 2°52.255 21.5932 0.079729 0.434954 -1.000568
2010-05-31 11:21:06 51°17.634 2°52.266 21.6483 0.079729 0.435017 -0.965744
2010-05-31 11:22:07 51°17.392 2°52.278 21.5884 0.079729 0.435031 -0.965744
2010-05-31 11:23:06 51°17.162 2°52.328 21.6484 0.079729 0.435017 -0.965744
2010-05-31 11:24:07 51°16.941 2°52.454 21.6358 0.079729 0.435038 -0.965744
2010-05-31 11:25:06 51°16.734 2°52.594 21.6739 0.079729 0.435038 -1.000568
2010-05-31 11:26:06 51°16.528 2°52.753 21.688 0.079729 0.435045 -0.965744
2010-05-31 11:27:06 51°16.354 2°52.861 21.6545 0.079729 0.435052 -1.000568
2010-05-31 11:28:06 51°16.236 2°52.918 21.676 0.079729 0.435052 -0.965744
2010-05-31 11:29:06 51°16.149 2°52.992 21.6865 0.079729 0.435059 -0.965744
2010-05-31 11:30:07 51°16.008 2°53.148 21.7466 0.079729 0.435066 -0.965744
2010-05-31 11:31:06 51°15.827 2°53.34 21.7262 0.079729 0.435059 -0.965744
2010-05-31 11:32:06 51°15.642 2°53.534 21.7454 0.079729 0.435101 -1.000568
2010-05-31 11:33:06 51°15.453 2°53.719 21.7303 0.079729 0.435045 -0.965744
2010-05-31 11:34:06 51°15.298 2°53.964 21.7642 0.079729 0.435052 -1.000568
2010-05-31 11:35:06 51°15.152 2°54.225 21.7352 0.079729 0.435045 -1.000568
2010-05-31 11:36:07 51°14.981 2°54.463 21.762 0.079729 0.435031 -1.000568
2010-05-31 11:37:06 51°14.8 2°54.668 21.7656 0.079729 0.435059 -1.000568
2010-05-31 11:38:07 51°14.613 2°54.881 21.7911 0.079729 0.435052 -1.000568
2010-05-31 11:39:06 51°14.436 2°55.085 21.8045 0.079729 0.435073 -0.965744
2010-05-31 11:40:07 51°14.262 2°55.291 21.8199 0.079729 0.43508 -0.965744
2010-05-31 11:41:06 51°14.12 2°55.415 21.8248 0.079729 0.43508 -1.000568
2010-05-31 11:42:07 51°13.993 2°55.508 21.8383 0.079729 0.435073 -0.965744
2010-05-31 11:43:06 51°13.884 2°55.588 21.8456 0.079729 0.435073 -0.965744
2010-05-31 11:44:07 51°13.779 2°55.68 21.8707 0.079729 0.435094 -0.965744
2010-05-31 11:45:06 51°13.711 2°55.786 21.8673 0.079729 0.435094 -1.000568
2010-05-31 11:46:07 51°13.677 2°55.89 21.8785 0.079729 0.43508 -0.965744
2010-05-31 11:47:07 51°13.662 2°55.957 21.9019 0.079729 0.435087 -0.965744